createdAt,value
2019-02-23T00:00:39.656Z,35.00
2019-02-23T00:01:39.681Z,26.70
2019-02-23T00:02:39.706Z,28.90
2019-02-23T00:03:39.732Z,31.20
2019-02-23T00:04:39.758Z,33.40
2019-02-23T00:05:39.783Z,29.90
2019-02-23T00:06:39.809Z,29.40
2019-02-23T00:07:39.833Z,26.90
2019-02-23T00:08:39.866Z,26.60
2019-02-23T00:09:39.883Z,29.10
2019-02-23T00:10:39.911Z,32.60
2019-02-23T00:11:39.935Z,31.50
2019-02-23T00:12:39.965Z,28.40
2019-02-23T00:13:39.989Z,30.10
2019-02-23T00:14:40.014Z,26.30
2019-02-23T00:15:40.038Z,31.10
2019-02-23T00:16:40.069Z,24.50
2019-02-23T00:17:40.093Z,24.80
2019-02-23T00:18:40.116Z,27.30
2019-02-23T00:19:40.140Z,27.60
2019-02-23T00:20:40.165Z,27.70
2019-02-23T00:21:40.192Z,29.40
2019-02-23T00:22:40.215Z,28.00
2019-02-23T00:23:40.246Z,28.70
2019-02-23T00:24:40.273Z,27.50
2019-02-23T00:25:40.293Z,31.90
2019-02-23T00:26:40.318Z,33.70
2019-02-23T00:27:40.343Z,36.10
2019-02-23T00:28:40.368Z,31.70
2019-02-23T00:29:40.394Z,32.60
2019-02-23T00:30:40.418Z,28.40
2019-02-23T00:31:40.445Z,26.40
2019-02-23T00:32:40.470Z,31.80
2019-02-23T00:33:40.495Z,29.20
2019-02-23T00:34:40.520Z,28.10
2019-02-23T00:35:40.545Z,29.50
2019-02-23T00:36:40.571Z,32.80
2019-02-23T00:37:40.597Z,34.20
2019-02-23T00:38:40.621Z,36.50
2019-02-23T00:39:40.646Z,38.80
2019-02-23T00:40:40.672Z,31.20
2019-02-23T00:41:40.699Z,30.80
2019-02-23T00:42:40.722Z,31.20
2019-02-23T00:43:40.748Z,25.90
2019-02-23T00:44:40.777Z,24.40
2019-02-23T00:45:40.799Z,28.70
2019-02-23T00:46:40.823Z,29.10
2019-02-23T00:47:40.849Z,30.20
2019-02-23T00:48:40.875Z,28.80
2019-02-23T00:49:40.904Z,21.80
2019-02-23T00:50:40.932Z,26.10
2019-02-23T00:51:40.951Z,29.60
2019-02-23T00:52:40.977Z,24.40
2019-02-23T00:53:41.001Z,25.20
2019-02-23T00:54:41.027Z,25.40
2019-02-23T00:55:41.052Z,24.00
2019-02-23T00:56:41.077Z,30.70
2019-02-23T00:57:41.103Z,31.10
2019-02-23T00:58:41.128Z,31.80
2019-02-23T00:59:41.154Z,24.80
2019-02-23T01:00:41.178Z,25.00
2019-02-23T01:01:41.204Z,21.60
2019-02-23T01:02:41.230Z,22.90
2019-02-23T01:03:41.255Z,24.40
2019-02-23T01:04:41.280Z,25.80
2019-02-23T01:05:41.309Z,25.00
2019-02-23T01:06:41.331Z,21.80
2019-02-23T01:07:41.356Z,25.50
2019-02-23T01:08:41.381Z,36.70
2019-02-23T01:09:41.406Z,42.20
2019-02-23T01:10:41.430Z,28.30
2019-02-23T01:11:41.506Z,30.60
2019-02-23T01:12:41.482Z,27.20
2019-02-23T01:13:41.510Z,26.30
2019-02-23T01:14:41.533Z,30.20
2019-02-23T01:15:41.557Z,28.40
2019-02-23T01:16:41.582Z,27.10
2019-02-23T01:17:41.611Z,26.30
2019-02-23T01:18:41.632Z,26.50
2019-02-23T01:19:47.758Z,28.50
2019-02-23T01:20:41.683Z,23.00
2019-02-23T01:21:41.708Z,25.40
2019-02-23T01:22:41.802Z,29.60
2019-02-23T01:23:41.763Z,23.30
2019-02-23T01:24:41.783Z,32.30
2019-02-23T01:25:41.809Z,27.40
2019-02-23T01:26:41.837Z,29.00
2019-02-23T01:27:41.863Z,25.20
2019-02-23T01:28:41.886Z,23.30
2019-02-23T01:29:41.910Z,26.10
2019-02-23T01:30:41.934Z,27.00
2019-02-23T01:31:41.960Z,26.80
2019-02-23T01:32:41.987Z,25.40
2019-02-23T01:33:42.064Z,28.20
2019-02-23T01:34:42.038Z,27.50
2019-02-23T01:35:42.060Z,24.10
2019-02-23T01:36:42.085Z,24.60
2019-02-23T01:37:42.110Z,26.10
2019-02-23T01:38:42.136Z,22.60
2019-02-23T01:39:42.161Z,20.30
2019-02-23T01:40:42.187Z,27.60
2019-02-23T01:41:42.211Z,28.90
2019-02-23T01:42:42.240Z,26.60
2019-02-23T01:43:42.261Z,30.90
2019-02-23T01:44:42.286Z,26.20
2019-02-23T01:45:42.793Z,29.20
2019-02-23T01:46:42.336Z,28.90
2019-02-23T01:47:42.361Z,28.10
2019-02-23T01:48:42.387Z,23.40
2019-02-23T01:49:42.413Z,21.70
2019-02-23T01:50:42.437Z,25.60
2019-02-23T01:51:42.462Z,27.50
2019-02-23T01:52:42.490Z,23.90
2019-02-23T01:53:42.514Z,29.40
2019-02-23T01:54:42.536Z,29.60
2019-02-23T01:55:42.562Z,26.30
2019-02-23T01:56:42.588Z,24.30
2019-02-23T01:57:42.634Z,27.40
2019-02-23T01:58:42.657Z,30.80
2019-02-23T01:59:42.744Z,30.00
2019-02-23T02:00:42.686Z,25.80
2019-02-23T02:01:42.713Z,24.90
2019-02-23T02:02:42.739Z,23.60
2019-02-23T02:03:42.763Z,27.80
2019-02-23T02:04:42.788Z,24.60
2019-02-23T02:05:42.813Z,25.90
2019-02-23T02:06:42.838Z,22.40
2019-02-23T02:07:42.864Z,32.50
2019-02-23T02:08:42.888Z,27.60
2019-02-23T02:09:42.915Z,27.00
2019-02-23T02:10:42.938Z,27.80
2019-02-23T02:11:42.963Z,29.00
2019-02-23T02:12:42.988Z,31.90
2019-02-23T02:13:43.014Z,35.30
2019-02-23T02:14:43.050Z,32.80
2019-02-23T02:15:43.064Z,27.00
2019-02-23T02:16:43.088Z,26.00
2019-02-23T02:17:43.114Z,29.70
2019-02-23T02:18:43.138Z,31.80
2019-02-23T02:19:43.163Z,34.70
2019-02-23T02:20:43.189Z,34.90
2019-02-23T02:21:43.215Z,30.20
2019-02-23T02:22:43.239Z,36.30
2019-02-23T02:23:43.264Z,26.30
2019-02-23T02:24:43.289Z,26.50
2019-02-23T02:25:43.313Z,34.10
2019-02-23T02:26:43.388Z,30.90
2019-02-23T02:27:43.363Z,28.70
2019-02-23T02:28:43.388Z,30.30
2019-02-23T02:29:43.414Z,30.90
2019-02-23T02:30:43.439Z,29.90
2019-02-23T02:31:43.464Z,27.10
2019-02-23T02:32:43.489Z,25.80
2019-02-23T02:33:44.765Z,25.30
2019-02-23T02:34:43.537Z,26.50
2019-02-23T02:35:43.565Z,24.20
2019-02-23T02:36:43.589Z,27.80
2019-02-23T02:37:43.613Z,30.40
2019-02-23T02:38:43.636Z,33.70
2019-02-23T02:39:43.665Z,34.70
2019-02-23T02:40:43.696Z,28.90
2019-02-23T02:41:43.718Z,31.90
2019-02-23T02:42:43.744Z,28.00
2019-02-23T02:43:43.764Z,32.60
2019-02-23T02:44:43.788Z,32.20
2019-02-23T02:45:43.815Z,37.30
2019-02-23T02:46:43.839Z,39.90
2019-02-23T02:47:43.863Z,35.90
2019-02-23T02:48:43.889Z,34.50
2019-02-23T02:49:43.913Z,29.20
2019-02-23T02:50:43.939Z,29.50
2019-02-23T02:51:43.965Z,27.90
2019-02-23T02:52:43.988Z,30.10
2019-02-23T02:53:44.014Z,35.40
2019-02-23T02:54:44.038Z,33.30
2019-02-23T02:55:46.872Z,31.20
2019-02-23T02:56:44.089Z,36.00
2019-02-23T02:57:44.115Z,36.70
2019-02-23T02:58:44.137Z,31.60
2019-02-23T02:59:44.162Z,30.70
2019-02-23T03:00:44.187Z,33.90
2019-02-23T03:01:44.216Z,32.80
2019-02-23T03:02:44.237Z,34.20
2019-02-23T03:03:44.263Z,34.70
2019-02-23T03:04:44.292Z,32.10
2019-02-23T03:05:44.332Z,32.80
2019-02-23T03:06:44.336Z,36.40
2019-02-23T03:07:44.426Z,34.20
2019-02-23T03:08:44.385Z,27.60
2019-02-23T03:09:44.413Z,35.70
2019-02-23T03:10:44.437Z,36.90
2019-02-23T03:11:44.461Z,40.90
2019-02-23T03:12:44.490Z,44.70
2019-02-23T03:13:44.511Z,41.10
2019-02-23T03:14:44.543Z,43.00
2019-02-23T03:15:44.561Z,50.90
2019-02-23T03:16:44.594Z,37.80
2019-02-23T03:17:44.611Z,42.10
2019-02-23T03:18:44.634Z,39.20
2019-02-23T03:19:44.660Z,46.20
2019-02-23T03:20:44.686Z,48.60
2019-02-23T03:21:44.710Z,39.70
2019-02-23T03:22:44.733Z,40.00
2019-02-23T03:23:44.759Z,48.30
2019-02-23T03:24:44.789Z,41.60
2019-02-23T03:25:44.808Z,39.40
2019-02-23T03:26:44.834Z,47.40
2019-02-23T03:27:44.858Z,39.60
2019-02-23T03:28:44.883Z,40.00
2019-02-23T03:29:44.908Z,38.40
2019-02-23T03:30:44.935Z,37.80
2019-02-23T03:31:44.957Z,28.90
2019-02-23T03:32:44.981Z,27.90
2019-02-23T03:33:45.007Z,35.00
2019-02-23T03:34:45.031Z,40.70
2019-02-23T03:35:45.057Z,37.70
2019-02-23T03:36:45.088Z,35.80
2019-02-23T03:37:45.104Z,30.90
2019-02-23T03:38:45.129Z,30.50
2019-02-23T03:39:45.154Z,29.50
2019-02-23T03:40:45.179Z,28.60
2019-02-23T03:41:45.204Z,33.90
2019-02-23T03:42:45.229Z,29.20
2019-02-23T03:43:45.253Z,39.30
2019-02-23T03:44:45.276Z,32.90
2019-02-23T03:45:45.303Z,28.00
2019-02-23T03:46:45.389Z,30.00
2019-02-23T03:47:45.352Z,33.80
2019-02-23T03:48:45.380Z,33.80
2019-02-23T03:49:45.401Z,26.20
2019-02-23T03:50:48.996Z,33.40
2019-02-23T03:51:45.449Z,28.40
2019-02-23T03:52:45.475Z,28.60
2019-02-23T03:53:45.500Z,36.70
2019-02-23T03:54:45.524Z,29.30
2019-02-23T03:55:45.551Z,24.50
2019-02-23T03:56:45.575Z,25.10
2019-02-23T03:57:45.598Z,25.50
2019-02-23T03:58:45.624Z,29.70
2019-02-23T03:59:45.649Z,25.60
2019-02-23T04:00:45.678Z,30.80
2019-02-23T04:01:45.696Z,20.70
2019-02-23T04:02:45.721Z,26.40
2019-02-23T04:03:45.749Z,25.30
2019-02-23T04:04:45.769Z,24.20
2019-02-23T04:05:45.794Z,26.30
2019-02-23T04:06:45.818Z,30.00
2019-02-23T04:07:45.842Z,30.80
2019-02-23T04:08:45.868Z,24.90
2019-02-23T04:09:45.894Z,27.00
2019-02-23T04:10:45.916Z,30.00
2019-02-23T04:11:45.947Z,30.20
2019-02-23T04:12:45.966Z,30.10
2019-02-23T04:13:45.990Z,30.40
2019-02-23T04:14:46.025Z,27.90
2019-02-23T04:15:46.039Z,31.20
2019-02-23T04:16:46.063Z,29.60
2019-02-23T04:17:46.091Z,28.70
2019-02-23T04:18:46.113Z,23.90
2019-02-23T04:19:46.136Z,28.40
2019-02-23T04:20:46.161Z,22.60
2019-02-23T04:21:46.185Z,28.20
2019-02-23T04:22:46.211Z,34.00
2019-02-23T04:23:46.236Z,38.40
2019-02-23T04:24:46.259Z,33.10
2019-02-23T04:25:46.283Z,25.80
2019-02-23T04:26:46.356Z,30.20
2019-02-23T04:27:46.338Z,29.80
2019-02-23T04:28:46.357Z,26.90
2019-02-23T04:29:47.123Z,25.50
2019-02-23T04:30:46.406Z,25.30
2019-02-23T04:31:46.430Z,23.10
2019-02-23T04:32:46.453Z,29.20
2019-02-23T04:33:46.478Z,34.40
2019-02-23T04:34:46.503Z,39.00
2019-02-23T04:35:46.698Z,42.80
2019-02-23T04:36:46.551Z,31.90
2019-02-23T04:37:46.576Z,38.50
2019-02-23T04:38:46.601Z,34.20
2019-02-23T04:39:46.628Z,35.30
2019-02-23T04:40:46.649Z,34.20
2019-02-23T04:41:46.673Z,33.60
2019-02-23T04:42:46.697Z,29.90
2019-02-23T04:43:46.722Z,32.10
2019-02-23T04:44:46.747Z,33.30
2019-02-23T04:45:46.772Z,37.80
2019-02-23T04:46:46.795Z,38.00
2019-02-23T04:47:46.819Z,34.00
2019-02-23T04:48:46.846Z,32.30
2019-02-23T04:49:46.869Z,29.10
2019-02-23T04:50:46.892Z,32.30
2019-02-23T04:51:46.917Z,27.60
2019-02-23T04:52:46.942Z,33.70
2019-02-23T04:53:46.968Z,37.40
2019-02-23T04:54:46.989Z,31.70
2019-02-23T04:55:47.017Z,33.50
2019-02-23T04:56:47.038Z,34.30
2019-02-23T04:57:47.063Z,28.80
2019-02-23T04:58:47.087Z,32.20
2019-02-23T04:59:47.113Z,46.70
2019-02-23T05:00:47.137Z,39.60
2019-02-23T05:01:47.162Z,35.00
2019-02-23T05:02:47.184Z,31.40
2019-02-23T05:03:47.209Z,31.80
2019-02-23T05:04:47.234Z,25.40
2019-02-23T05:05:47.258Z,24.90
2019-02-23T05:06:47.282Z,27.60
2019-02-23T05:07:47.307Z,23.60
2019-02-23T05:08:47.344Z,32.30
2019-02-23T05:09:47.354Z,26.20
2019-02-23T05:10:47.381Z,26.70
2019-02-23T05:11:47.403Z,25.90
2019-02-23T05:12:47.428Z,26.40
2019-02-23T05:13:47.452Z,29.00
2019-02-23T05:14:47.481Z,25.60
2019-02-23T05:15:47.500Z,32.10
2019-02-23T05:16:47.525Z,28.70
2019-02-23T05:17:47.548Z,33.60
2019-02-23T05:18:47.579Z,26.50
2019-02-23T05:19:47.597Z,28.00
2019-02-23T05:20:47.621Z,28.60
2019-02-23T05:21:47.647Z,30.10
2019-02-23T05:22:47.670Z,28.40
2019-02-23T05:23:47.694Z,28.90
2019-02-23T05:24:47.719Z,29.30
2019-02-23T05:25:47.749Z,32.10
2019-02-23T05:26:47.767Z,33.00
2019-02-23T05:27:47.793Z,25.60
2019-02-23T05:28:47.815Z,32.10
2019-02-23T05:29:47.840Z,27.00
2019-02-23T05:30:47.864Z,22.60
2019-02-23T05:31:47.890Z,28.70
2019-02-23T05:32:47.914Z,31.30
2019-02-23T05:33:47.937Z,28.30
2019-02-23T05:34:47.960Z,31.10
2019-02-23T05:35:47.997Z,29.50
2019-02-23T05:36:48.009Z,29.40
2019-02-23T05:37:48.035Z,30.70
2019-02-23T05:38:48.061Z,30.60
2019-02-23T05:39:48.081Z,29.20
2019-02-23T05:40:48.106Z,26.20
2019-02-23T05:41:48.131Z,23.40
2019-02-23T05:43:00.089Z,26.10
2019-02-23T05:43:48.178Z,27.80
2019-02-23T05:44:48.205Z,28.80
2019-02-23T05:45:48.225Z,30.80
2019-02-23T05:46:48.250Z,36.00
2019-02-23T05:47:48.276Z,49.90
2019-02-23T05:48:48.352Z,43.20
2019-02-23T05:49:48.323Z,35.30
2019-02-23T05:50:48.349Z,31.10
2019-02-23T05:51:48.370Z,26.20
2019-02-23T05:52:48.395Z,28.80
2019-02-23T05:53:48.420Z,31.10
2019-02-23T05:54:48.445Z,35.70
2019-02-23T05:55:48.467Z,33.90
2019-02-23T05:56:48.491Z,34.80
2019-02-23T05:57:48.515Z,32.00
2019-02-23T05:58:48.538Z,40.70
2019-02-23T05:59:48.563Z,42.30
2019-02-23T06:00:48.588Z,38.50
2019-02-23T06:01:48.613Z,49.80
2019-02-23T06:02:48.642Z,45.50
2019-02-23T06:03:48.659Z,36.70
2019-02-23T06:04:48.684Z,31.70
2019-02-23T06:05:48.714Z,34.30
2019-02-23T06:06:48.730Z,28.60
2019-02-23T06:07:48.755Z,29.90
2019-02-23T06:08:48.780Z,28.40
2019-02-23T06:09:48.806Z,37.90
2019-02-23T06:10:48.827Z,35.30
2019-02-23T06:11:48.858Z,40.70
2019-02-23T06:12:48.874Z,44.40
2019-02-23T06:13:48.898Z,39.50
2019-02-23T06:14:49.775Z,41.30
2019-02-23T06:15:48.947Z,33.80
2019-02-23T06:16:48.975Z,35.70
2019-02-23T06:17:48.995Z,35.10
2019-02-23T06:18:49.018Z,38.90
2019-02-23T06:19:49.042Z,36.70
2019-02-23T06:20:49.066Z,35.50
2019-02-23T06:21:53.550Z,32.60
2019-02-23T06:22:49.114Z,35.70
2019-02-23T06:23:49.138Z,36.90
2019-02-23T06:24:49.164Z,33.90
2019-02-23T06:25:49.310Z,29.40
2019-02-23T06:26:49.209Z,31.00
2019-02-23T06:27:49.234Z,28.00
2019-02-23T06:28:49.268Z,29.60
2019-02-23T06:29:49.281Z,41.10
2019-02-23T06:30:49.311Z,38.20
2019-02-23T06:31:49.335Z,33.50
2019-02-23T06:32:49.353Z,28.20
2019-02-23T06:33:49.377Z,28.50
2019-02-23T06:34:49.407Z,33.00
2019-02-23T06:35:49.425Z,42.30
2019-02-23T06:36:49.450Z,58.40
2019-02-23T06:37:49.476Z,44.40
2019-02-23T06:38:49.497Z,37.30
2019-02-23T06:39:49.525Z,36.30
2019-02-23T06:40:49.543Z,31.50
2019-02-23T06:41:49.568Z,32.70
2019-02-23T06:42:49.592Z,35.70
2019-02-23T06:43:49.619Z,32.60
2019-02-23T06:44:49.640Z,32.50
2019-02-23T06:45:49.665Z,32.40
2019-02-23T06:46:49.694Z,34.70
2019-02-23T06:47:49.712Z,30.10
2019-02-23T06:48:49.736Z,28.20
2019-02-23T06:49:49.763Z,35.60
2019-02-23T06:50:49.784Z,41.20
2019-02-23T06:51:49.808Z,32.10
2019-02-23T06:52:49.834Z,33.50
2019-02-23T06:53:49.859Z,40.40
2019-02-23T06:54:49.880Z,30.70
2019-02-23T06:55:49.904Z,37.00
2019-02-23T06:56:49.930Z,34.00
2019-02-23T06:57:49.952Z,31.10
2019-02-23T06:58:49.975Z,27.70
2019-02-23T06:59:49.999Z,28.60
2019-02-23T07:00:50.029Z,33.00
2019-02-23T07:01:50.051Z,32.50
2019-02-23T07:02:50.073Z,25.70
2019-02-23T07:03:50.096Z,25.60
2019-02-23T07:04:50.128Z,25.40
2019-02-23T07:05:50.151Z,28.40
2019-02-23T07:06:50.173Z,34.30
2019-02-23T07:07:50.193Z,29.30
2019-02-23T07:08:50.224Z,38.90
2019-02-23T07:09:50.244Z,26.60
2019-02-23T07:10:50.270Z,29.10
2019-02-23T07:11:50.291Z,53.30
2019-02-23T07:12:50.314Z,37.00
2019-02-23T07:13:50.339Z,34.10
2019-02-23T07:14:50.362Z,51.40
2019-02-23T07:15:50.387Z,68.00
2019-02-23T07:16:50.412Z,52.40
2019-02-23T07:17:50.436Z,28.80
2019-02-23T07:18:50.462Z,27.60
2019-02-23T07:19:50.488Z,24.90
2019-02-23T07:20:50.510Z,27.70
2019-02-23T07:21:50.536Z,49.10
2019-02-23T07:22:50.559Z,48.30
2019-02-23T07:23:50.587Z,60.40
2019-02-23T07:24:50.610Z,45.60
2019-02-23T07:25:50.634Z,38.70
2019-02-23T07:26:50.658Z,52.10
2019-02-23T07:27:50.685Z,44.10
2019-02-23T07:28:50.708Z,45.50
2019-02-23T07:29:50.732Z,38.80
2019-02-23T07:30:50.758Z,31.20
2019-02-23T07:31:50.784Z,38.80
2019-02-23T07:32:50.810Z,39.90
2019-02-23T07:33:50.835Z,47.40
2019-02-23T07:34:50.860Z,105.40
2019-02-23T07:35:50.884Z,81.30
2019-02-23T07:36:50.912Z,79.70
2019-02-23T07:37:50.937Z,196.90
2019-02-23T07:38:50.960Z,141.40
2019-02-23T07:39:50.987Z,51.30
2019-02-23T07:40:51.011Z,44.00
2019-02-23T07:41:51.037Z,37.00
2019-02-23T07:42:51.069Z,39.20
2019-02-23T07:43:51.094Z,40.10
2019-02-23T07:44:51.117Z,43.50
2019-02-23T07:45:51.142Z,46.60
2019-02-23T07:46:51.167Z,43.60
2019-02-23T07:47:51.195Z,68.70
2019-02-23T07:48:51.220Z,74.90
2019-02-23T07:49:51.247Z,44.50
2019-02-23T07:50:52.667Z,38.40
2019-02-23T07:51:51.298Z,33.20
2019-02-23T07:52:51.327Z,44.00
2019-02-23T07:53:51.353Z,38.30
2019-02-23T07:54:51.378Z,38.60
2019-02-23T07:55:51.407Z,41.60
2019-02-23T07:56:51.432Z,45.40
2019-02-23T07:57:51.460Z,40.00
2019-02-23T07:58:51.488Z,38.60
2019-02-23T07:59:51.511Z,33.40
2019-02-23T08:00:51.540Z,28.70
2019-02-23T08:01:51.568Z,37.00
2019-02-23T08:02:51.593Z,32.70
2019-02-23T08:03:51.621Z,27.20
2019-02-23T08:04:51.649Z,31.40
2019-02-23T08:05:51.676Z,27.90
2019-02-23T08:06:51.704Z,39.20
2019-02-23T08:07:51.733Z,30.50
2019-02-23T08:08:51.760Z,21.70
2019-02-23T08:09:51.787Z,24.80
2019-02-23T08:10:51.814Z,29.10
2019-02-23T08:11:51.842Z,50.50
2019-02-23T08:12:51.874Z,30.60
2019-02-23T08:13:51.901Z,21.70
2019-02-23T08:14:51.928Z,22.40
2019-02-23T08:15:51.957Z,26.20
2019-02-23T08:16:52.207Z,33.40
2019-02-23T08:17:52.013Z,28.70
2019-02-23T08:21:18.241Z,21.80
2019-02-23T08:22:17.942Z,20.80
2019-02-23T08:23:17.976Z,20.70
2019-02-23T08:24:17.999Z,25.20
2019-02-23T08:25:18.055Z,21.10
2019-02-23T08:26:18.085Z,62.10
2019-02-23T08:27:18.090Z,25.80
2019-02-23T08:28:18.125Z,27.20
2019-02-23T08:29:18.152Z,21.60
2019-02-23T08:30:18.181Z,20.20
2019-02-23T08:31:18.215Z,15.80
2019-02-23T08:32:18.242Z,15.70
2019-02-23T08:33:18.274Z,14.40
2019-02-23T08:34:18.305Z,15.30
2019-02-23T08:35:18.336Z,13.80
2019-02-23T08:36:18.367Z,16.00
2019-02-23T08:37:18.401Z,15.90
2019-02-23T08:38:18.430Z,18.60
2019-02-23T08:39:18.470Z,16.90
2019-02-23T08:40:18.496Z,21.60
2019-02-23T08:41:18.527Z,18.50
2019-02-23T08:42:18.557Z,24.70
2019-02-23T08:43:20.720Z,16.20
2019-02-23T08:44:18.620Z,15.20
2019-02-23T08:45:18.655Z,14.80
2019-02-23T08:46:18.687Z,14.60
2019-02-23T08:47:18.719Z,15.00
2019-02-23T08:48:18.752Z,14.10
2019-02-23T08:49:18.785Z,14.40
2019-02-23T08:50:18.819Z,18.00
2019-02-23T08:51:18.851Z,12.80
2019-02-23T08:52:18.884Z,13.40
2019-02-23T08:53:18.917Z,13.60
2019-02-23T08:54:18.951Z,12.80
2019-02-23T08:55:18.992Z,13.70
2019-02-23T08:56:19.018Z,14.10
2019-02-23T08:57:19.051Z,13.60
2019-02-23T08:58:19.086Z,12.90
2019-02-23T08:59:19.120Z,13.40
2019-02-23T09:00:19.163Z,14.30
2019-02-23T09:01:19.195Z,13.70
2019-02-23T09:02:19.226Z,14.20
2019-02-23T09:03:19.256Z,13.50
2019-02-23T09:04:19.513Z,13.90
2019-02-23T09:06:19.364Z,13.80
2019-02-23T09:08:19.654Z,15.80
2019-02-23T09:09:19.469Z,13.40
2019-02-23T09:10:19.499Z,12.70
2019-02-23T09:11:19.538Z,12.70
2019-02-23T09:12:19.589Z,13.10
2019-02-23T09:13:19.635Z,12.20
2019-02-23T09:14:19.642Z,12.40
2019-02-23T09:15:22.161Z,11.60
2019-02-23T09:16:19.942Z,11.80
2019-02-23T09:17:19.753Z,12.60
2019-02-23T09:18:19.785Z,12.70
2019-02-23T09:19:19.821Z,12.70
2019-02-23T09:20:28.588Z,11.30
2019-02-23T09:21:19.892Z,12.80
2019-02-23T09:22:19.928Z,11.90
2019-02-23T09:23:19.966Z,12.70
2019-02-23T09:24:20.000Z,10.90
2019-02-23T09:25:20.037Z,11.30
2019-02-23T09:26:20.077Z,11.80
2019-02-23T09:27:20.111Z,11.80
2019-02-23T09:28:20.149Z,11.10
2019-02-23T09:29:20.184Z,11.60
2019-02-23T09:30:20.223Z,11.70
2019-02-23T09:31:20.260Z,11.30
2019-02-23T09:32:20.300Z,11.30
2019-02-23T09:33:20.337Z,11.20
2019-02-23T09:34:20.372Z,11.20
2019-02-23T09:35:20.413Z,10.90
2019-02-23T09:36:20.448Z,11.70
2019-02-23T09:37:20.485Z,10.60
2019-02-23T09:38:20.525Z,18.90
2019-02-23T09:39:20.563Z,10.90
2019-02-23T09:40:20.600Z,11.80
2019-02-23T09:41:20.690Z,11.40
2019-02-23T09:42:20.677Z,10.40
2019-02-23T09:44:20.754Z,10.90
2019-02-23T09:45:20.795Z,10.60
2019-02-23T09:46:20.833Z,10.90
2019-02-23T09:47:20.870Z,10.90
2019-02-23T09:48:20.908Z,10.10
2019-02-23T09:49:20.948Z,10.60
2019-02-23T09:52:21.292Z,11.20
2019-02-23T09:53:25.024Z,10.40
2019-02-23T09:56:47.041Z,10.80
2019-02-23T09:57:47.082Z,11.10
2019-02-23T09:58:47.162Z,10.40
2019-02-23T09:59:47.160Z,11.00
2019-02-23T10:00:47.199Z,11.10
2019-02-23T10:01:47.324Z,11.30
2019-02-23T10:02:47.280Z,11.50
2019-02-23T10:03:47.320Z,10.60
2019-02-23T10:04:47.360Z,12.00
2019-02-23T10:05:47.401Z,16.20
2019-02-23T10:06:47.442Z,20.90
2019-02-23T10:07:47.533Z,13.60
2019-02-23T10:08:47.522Z,14.20
2019-02-23T10:09:47.585Z,25.90
2019-02-23T10:10:47.660Z,27.80
2019-02-23T10:11:47.644Z,19.00
2019-02-23T10:12:47.707Z,20.00
2019-02-23T10:13:47.748Z,22.70
2019-02-23T10:14:47.991Z,21.90
2019-02-23T10:15:47.832Z,22.30
2019-02-23T10:16:47.870Z,20.90
2019-02-23T10:17:48.089Z,20.70
2019-02-23T10:18:47.927Z,21.20
2019-02-23T10:19:48.194Z,22.40
2019-02-23T10:21:48.255Z,19.00
2019-02-23T10:23:48.133Z,19.40
2019-02-23T10:24:48.200Z,19.90
2019-02-23T10:25:48.220Z,13.90
2019-02-23T10:26:48.259Z,22.80
2019-02-23T10:27:48.298Z,22.10
2019-02-23T10:28:48.340Z,18.70
2019-02-23T10:29:48.382Z,16.20
2019-02-23T10:30:48.424Z,16.70
2019-02-23T10:31:48.467Z,16.20
2019-02-23T10:32:48.508Z,15.60
2019-02-23T10:33:48.549Z,16.40
2019-02-23T10:34:48.596Z,87.90
2019-02-23T10:35:48.634Z,60.70
2019-02-23T10:36:48.677Z,38.40
2019-02-23T10:37:48.721Z,15.90
2019-02-23T10:38:48.763Z,151.40
2019-02-23T10:39:48.809Z,153.70
2019-02-23T10:40:48.846Z,27.10
2019-02-23T10:41:48.889Z,9.70
2019-02-23T10:42:48.933Z,68.30
2019-02-23T10:43:49.015Z,18.90
2019-02-23T10:44:49.018Z,9.20
2019-02-23T10:45:49.061Z,23.40
2019-02-23T10:46:49.105Z,19.50
2019-02-23T10:47:50.289Z,8.40
2019-02-23T10:48:49.190Z,7.60
2019-02-23T10:49:49.233Z,7.10
2019-02-23T10:50:49.277Z,7.40
2019-02-23T10:51:49.318Z,8.50
2019-02-23T10:52:49.360Z,13.20
2019-02-23T10:53:49.405Z,7.00
2019-02-23T10:54:49.447Z,6.30
2019-02-23T10:55:49.488Z,6.90
2019-02-23T10:56:49.534Z,7.90
2019-02-23T10:57:49.578Z,8.10
2019-02-23T10:58:49.619Z,7.30
2019-02-23T10:59:49.661Z,7.10
2019-02-23T11:00:49.705Z,7.40
2019-02-23T11:01:49.771Z,7.60
2019-02-23T11:02:49.792Z,8.20
2019-02-23T11:03:49.836Z,10.00
2019-02-23T11:04:49.881Z,7.30
2019-02-23T11:05:49.927Z,7.40
2019-02-23T11:06:49.968Z,8.10
2019-02-23T11:07:50.011Z,8.00
2019-02-23T11:08:50.129Z,7.40
2019-02-23T11:09:50.099Z,6.80
2019-02-23T11:10:50.144Z,6.80
2019-02-23T11:11:50.190Z,13.60
2019-02-23T11:12:50.233Z,6.90
2019-02-23T11:13:50.282Z,6.80
2019-02-23T11:14:50.325Z,6.60
2019-02-23T11:15:50.366Z,6.50
2019-02-23T11:16:50.411Z,6.90
2019-02-23T11:17:50.460Z,7.00
2019-02-23T11:18:50.500Z,7.30
2019-02-23T11:19:50.550Z,7.40
2019-02-23T11:20:50.592Z,7.10
2019-02-23T11:21:50.637Z,7.40
2019-02-23T11:22:50.686Z,7.00
2019-02-23T11:23:50.726Z,7.50
2019-02-23T11:24:50.773Z,7.40
2019-02-23T11:25:50.819Z,7.90
2019-02-23T11:26:50.862Z,8.40
2019-02-23T11:27:50.907Z,10.80
2019-02-23T11:28:50.954Z,7.70
2019-02-23T11:29:50.997Z,8.30
2019-02-23T11:30:51.043Z,7.90
2019-02-23T11:31:51.092Z,8.30
2019-02-23T11:32:51.136Z,7.30
2019-02-23T11:33:51.179Z,7.90
2019-02-23T11:34:51.225Z,117.40
2019-02-23T11:35:51.270Z,48.40
2019-02-23T11:36:51.315Z,33.70
2019-02-23T11:37:51.362Z,67.90
2019-02-23T11:38:51.408Z,22.90
2019-02-23T11:39:51.453Z,27.90
2019-02-23T11:40:51.498Z,21.50
2019-02-23T11:41:51.546Z,16.70
2019-02-23T11:42:51.590Z,18.50
2019-02-23T11:43:51.635Z,16.10
2019-02-23T11:44:51.683Z,25.50
2019-02-23T11:45:51.729Z,45.60
2019-02-23T11:46:59.917Z,21.30
2019-02-23T11:47:51.820Z,14.10
2019-02-23T11:48:51.866Z,46.00
2019-02-23T11:49:51.935Z,10.20
2019-02-23T11:50:51.985Z,7.60
2019-02-23T11:51:52.005Z,14.40
2019-02-23T11:52:52.050Z,8.10
2019-02-23T11:53:54.839Z,7.90
2019-02-23T11:54:52.143Z,14.80
2019-02-23T11:55:52.213Z,13.70
2019-02-23T11:56:54.857Z,9.40
2019-02-23T11:57:52.280Z,9.40
2019-02-23T11:58:52.326Z,6.90
2019-02-23T11:59:52.397Z,6.90
2019-02-23T12:01:52.489Z,7.40
2019-02-23T12:02:53.056Z,7.50
2019-02-23T12:03:52.558Z,7.90
2019-02-23T12:04:52.624Z,39.70
2019-02-23T12:06:52.697Z,7.10
2019-02-23T12:07:52.742Z,7.00
2019-02-23T12:08:52.789Z,6.60
2019-02-23T12:09:52.837Z,7.20
2019-02-23T12:10:52.883Z,6.60
2019-02-23T12:11:52.928Z,7.60
2019-02-23T12:12:52.975Z,8.50
2019-02-23T12:13:53.023Z,6.70
2019-02-23T12:14:53.069Z,10.00
2019-02-23T12:15:53.116Z,32.00
2019-02-23T12:16:53.163Z,6.80
2019-02-23T12:17:53.211Z,6.50
2019-02-23T12:18:53.260Z,6.60
2019-02-23T12:19:55.321Z,7.30
2019-02-23T12:20:53.350Z,6.10
2019-02-23T12:21:53.397Z,6.60
2019-02-23T12:22:53.445Z,6.60
2019-02-23T12:23:53.492Z,5.60
2019-02-23T12:24:53.539Z,6.40
2019-02-23T12:25:53.584Z,6.10
2019-02-23T12:26:53.632Z,5.70
2019-02-23T12:27:53.677Z,6.20
2019-02-23T12:28:53.725Z,6.30
2019-02-23T12:29:53.774Z,20.60
2019-02-23T12:30:53.820Z,8.70
2019-02-23T12:31:53.866Z,36.10
2019-02-23T12:32:53.912Z,7.10
2019-02-23T12:33:53.960Z,11.40
2019-02-23T12:34:54.007Z,6.10
2019-02-23T12:35:54.054Z,5.40
2019-02-23T12:36:54.100Z,6.20
2019-02-23T12:37:54.147Z,42.00
2019-02-23T12:38:54.193Z,29.90
2019-02-23T12:39:54.240Z,6.70
2019-02-23T12:40:54.288Z,12.70
2019-02-23T12:41:54.336Z,28.90
2019-02-23T12:42:54.383Z,9.90
2019-02-23T12:43:54.429Z,5.70
2019-02-23T12:44:54.477Z,6.80
2019-02-23T12:45:54.524Z,5.90
2019-02-23T12:46:54.598Z,5.70
2019-02-23T12:47:54.618Z,5.20
2019-02-23T12:48:54.666Z,5.30
2019-02-23T12:49:54.713Z,5.10
2019-02-23T12:50:54.763Z,4.90
2019-02-23T12:51:54.811Z,4.90
2019-02-23T12:52:54.856Z,5.00
2019-02-23T12:53:54.903Z,5.80
2019-02-23T12:54:54.952Z,8.40
2019-02-23T12:55:55.000Z,5.90
2019-02-23T12:56:55.045Z,5.40
2019-02-23T12:57:55.093Z,5.70
2019-02-23T12:58:55.177Z,5.90
2019-02-23T12:59:55.189Z,5.90
2019-02-23T13:00:55.235Z,5.40
2019-02-23T13:01:55.285Z,6.10
2019-02-23T13:02:55.330Z,7.80
2019-02-23T13:03:55.377Z,6.10
2019-02-23T13:04:55.427Z,4.80
2019-02-23T13:05:55.474Z,7.20
2019-02-23T13:06:55.521Z,4.80
2019-02-23T13:07:55.571Z,5.20
2019-02-23T13:08:55.628Z,41.50
2019-02-23T13:09:55.660Z,16.50